createdAt,value
2022-09-20T00:03:21.524Z,8.40
2022-09-20T00:05:48.329Z,8.40
2022-09-20T00:08:16.687Z,8.40
2022-09-20T00:10:43.678Z,8.40
2022-09-20T00:13:13.338Z,8.40
2022-09-20T00:15:45.004Z,8.40
2022-09-20T00:18:13.133Z,8.40
2022-09-20T00:20:47.746Z,8.40
2022-09-20T00:23:15.246Z,8.40
2022-09-20T00:25:42.496Z,8.40
2022-09-20T00:28:10.687Z,8.40
2022-09-20T00:30:38.387Z,8.40
2022-09-20T00:33:05.553Z,8.40
2022-09-20T00:35:32.394Z,8.30
2022-09-20T00:37:59.168Z,8.30
2022-09-20T00:40:29.105Z,8.30
2022-09-20T00:42:56.016Z,8.20
2022-09-20T00:45:30.730Z,8.30
2022-09-20T00:48:12.159Z,8.30
2022-09-20T00:50:51.461Z,8.20
2022-09-20T00:53:29.723Z,8.20
2022-09-20T00:56:01.560Z,8.20
2022-09-20T00:58:30.543Z,8.10
2022-09-20T01:00:58.298Z,8.10
2022-09-20T01:03:28.174Z,8.10
2022-09-20T01:05:56.136Z,8.10
2022-09-20T01:08:26.802Z,8.10
2022-09-20T01:10:53.749Z,8.10
2022-09-20T01:13:20.507Z,8.10
2022-09-20T01:15:49.511Z,8.10
2022-09-20T01:18:18.367Z,8.10
2022-09-20T01:20:47.138Z,8.00
2022-09-20T01:23:49.239Z,8.00
2022-09-20T01:26:48.478Z,7.90
2022-09-20T01:29:27.479Z,7.90
2022-09-20T01:31:57.187Z,7.80
2022-09-20T01:34:34.870Z,7.80
2022-09-20T01:37:14.488Z,7.70
2022-09-20T01:40:16.990Z,7.70
2022-09-20T01:42:57.058Z,7.60
2022-09-20T01:45:32.346Z,7.60
2022-09-20T01:48:39.054Z,7.60
2022-09-20T01:51:15.038Z,7.50
2022-09-20T01:53:53.896Z,7.40
2022-09-20T01:57:08.074Z,7.40
2022-09-20T01:59:37.608Z,7.30
2022-09-20T02:02:26.134Z,7.20
2022-09-20T02:05:29.904Z,7.20
2022-09-20T02:08:22.509Z,7.10
2022-09-20T02:11:05.802Z,7.00
2022-09-20T02:13:48.542Z,7.00
2022-09-20T02:16:33.035Z,7.00
2022-09-20T02:19:18.548Z,6.90
2022-09-20T02:21:53.733Z,6.90
2022-09-20T02:24:27.171Z,6.90
2022-09-20T02:27:15.860Z,6.90
2022-09-20T02:30:00.725Z,6.90
2022-09-20T02:32:39.982Z,7.00
2022-09-20T02:35:31.072Z,6.90
2022-09-20T02:38:17.542Z,7.00
2022-09-20T02:41:10.112Z,7.00
2022-09-20T02:44:01.637Z,7.00
2022-09-20T02:46:48.413Z,7.10
2022-09-20T02:49:38.836Z,7.10
2022-09-20T02:52:41.401Z,7.10
2022-09-20T02:55:37.130Z,7.10
2022-09-20T02:58:27.944Z,7.10
2022-09-20T03:01:18.488Z,7.10
2022-09-20T03:04:29.586Z,7.10
2022-09-20T03:07:09.873Z,7.20
2022-09-20T03:10:01.878Z,7.20
2022-09-20T03:12:44.298Z,7.20
2022-09-20T03:15:43.683Z,7.20
2022-09-20T03:18:39.081Z,7.20
2022-09-20T03:21:27.090Z,7.20
2022-09-20T03:24:28.384Z,7.30
2022-09-20T03:27:04.294Z,7.20
2022-09-20T03:29:59.625Z,7.20
2022-09-20T03:32:48.972Z,7.20
2022-09-20T03:35:34.716Z,7.20
2022-09-20T03:38:15.097Z,7.30
2022-09-20T03:41:09.706Z,7.30
2022-09-20T03:43:48.355Z,7.30
2022-09-20T03:46:30.581Z,7.30
2022-09-20T03:49:25.149Z,7.30
2022-09-20T03:52:21.666Z,7.30
2022-09-20T03:55:16.467Z,7.30
2022-09-20T03:57:52.682Z,7.30
2022-09-20T04:00:41.258Z,7.30
2022-09-20T04:03:14.048Z,7.30
2022-09-20T04:05:59.188Z,7.30
2022-09-20T04:08:44.479Z,7.30
2022-09-20T04:11:20.389Z,7.30
2022-09-20T04:14:31.710Z,7.30
2022-09-20T04:17:01.769Z,7.30
2022-09-20T04:19:39.560Z,7.30
2022-09-20T04:22:08.313Z,7.30
2022-09-20T04:24:50.416Z,7.20
2022-09-20T04:27:26.271Z,7.30
2022-09-20T04:29:58.901Z,7.30
2022-09-20T04:32:35.645Z,7.30
2022-09-20T04:35:43.242Z,7.30
2022-09-20T04:38:17.203Z,7.30
2022-09-20T04:40:43.910Z,7.30
2022-09-20T04:43:30.484Z,7.30
2022-09-20T04:46:38.689Z,7.30
2022-09-20T04:49:56.173Z,7.40
2022-09-20T04:52:43.805Z,7.30
2022-09-20T04:55:50.128Z,7.40
2022-09-20T04:58:37.516Z,7.40
2022-09-20T05:01:19.626Z,7.40
2022-09-20T05:03:55.666Z,7.40
2022-09-20T05:06:41.257Z,7.40
2022-09-20T05:09:19.943Z,7.40
2022-09-20T05:12:14.132Z,7.50
2022-09-20T05:15:36.695Z,7.50
2022-09-20T05:18:12.808Z,7.50
2022-09-20T05:21:28.854Z,7.50
2022-09-20T05:24:32.548Z,7.50
2022-09-20T05:27:34.831Z,7.50
2022-09-20T05:30:25.999Z,7.60
2022-09-20T05:33:05.019Z,7.60
2022-09-20T05:35:40.092Z,7.50
2022-09-20T05:38:19.046Z,7.60
2022-09-20T05:41:14.185Z,7.60
2022-09-20T05:44:04.082Z,7.60
2022-09-20T05:47:09.051Z,7.70
2022-09-20T05:49:58.206Z,7.70
2022-09-20T05:52:41.854Z,7.80
2022-09-20T05:55:30.266Z,7.90
2022-09-20T05:58:22.616Z,7.90
2022-09-20T06:01:04.435Z,7.90
2022-09-20T06:03:54.495Z,8.00
2022-09-20T06:07:04.506Z,8.00
2022-09-20T06:09:34.229Z,8.10
2022-09-20T06:12:06.909Z,8.10
2022-09-20T06:14:48.410Z,8.10
2022-09-20T06:17:34.752Z,8.20
2022-09-20T06:20:29.634Z,8.20
2022-09-20T06:22:59.147Z,8.20
2022-09-20T06:25:39.769Z,8.20
2022-09-20T06:28:21.193Z,8.30
2022-09-20T06:30:52.988Z,8.40
2022-09-20T06:33:21.617Z,8.40
2022-09-20T06:35:58.264Z,8.40
2022-09-20T06:39:30.151Z,8.40
2022-09-20T06:41:57.958Z,8.40
2022-09-20T06:44:24.662Z,8.30
2022-09-20T06:46:54.275Z,8.40
2022-09-20T06:49:22.384Z,8.40
2022-09-20T06:51:52.443Z,8.40
2022-09-20T06:54:21.805Z,8.40
2022-09-20T06:56:50.182Z,8.40
2022-09-20T06:59:16.962Z,8.50
2022-09-20T07:01:44.283Z,8.50
2022-09-20T07:04:11.136Z,8.50
2022-09-20T07:06:37.913Z,8.50
2022-09-20T07:09:05.995Z,8.60
2022-09-20T07:11:35.094Z,8.60
2022-09-20T07:14:02.081Z,8.70
2022-09-20T07:16:29.241Z,8.70
2022-09-20T07:18:56.869Z,8.80
2022-09-20T07:21:24.084Z,8.90
2022-09-20T07:23:51.322Z,8.90
2022-09-20T07:26:21.477Z,8.90
2022-09-20T07:28:49.507Z,8.90
2022-09-20T07:31:19.925Z,8.90
2022-09-20T07:33:46.777Z,8.80
2022-09-20T07:36:13.776Z,8.90
2022-09-20T07:38:42.043Z,9.00
2022-09-20T07:41:09.815Z,9.10
2022-09-20T07:43:37.260Z,9.20
2022-09-20T07:46:04.401Z,9.30
2022-09-20T07:48:33.633Z,9.40
2022-09-20T07:51:08.802Z,9.50
2022-09-20T07:53:36.869Z,9.60
2022-09-20T07:56:12.248Z,9.60
2022-09-20T07:58:39.382Z,9.70
2022-09-20T08:01:08.908Z,9.70
2022-09-20T08:03:36.145Z,9.80
2022-09-20T08:06:07.871Z,9.70
2022-09-20T08:08:36.664Z,9.60
2022-09-20T08:11:12.057Z,9.60
2022-09-20T08:16:28.569Z,9.60
2022-09-20T08:18:58.905Z,9.60
2022-09-20T08:21:28.732Z,9.60
2022-09-20T08:23:55.696Z,9.60
2022-09-20T08:26:26.899Z,9.60
2022-09-20T08:28:56.225Z,9.60
2022-09-20T08:31:25.375Z,9.70
2022-09-20T08:33:53.352Z,9.80
2022-09-20T08:36:23.150Z,9.90
2022-09-20T08:41:44.469Z,10.00
2022-09-20T08:44:57.764Z,9.80
2022-09-20T08:47:45.695Z,9.90
2022-09-20T08:50:18.713Z,9.90
2022-09-20T08:52:49.347Z,10.00
2022-09-20T08:55:22.385Z,10.10
2022-09-20T08:57:55.554Z,10.20
2022-09-20T09:00:29.608Z,10.30
2022-09-20T09:03:00.840Z,10.30
2022-09-20T09:05:39.533Z,10.30
2022-09-20T09:08:19.178Z,10.30
2022-09-20T09:10:54.252Z,10.30
2022-09-20T09:13:31.914Z,10.30
2022-09-20T09:16:12.950Z,10.30
2022-09-20T09:18:41.893Z,10.20
2022-09-20T09:21:16.848Z,10.20
2022-09-20T09:24:01.966Z,10.30
2022-09-20T09:26:35.176Z,10.40
2022-09-20T09:29:21.693Z,10.40
2022-09-20T09:31:51.736Z,10.40
2022-09-20T09:34:31.047Z,10.40
2022-09-20T09:36:58.994Z,10.40
2022-09-20T09:39:29.573Z,10.50
2022-09-20T09:41:56.594Z,10.70
2022-09-20T09:44:24.958Z,10.70
2022-09-20T09:46:53.722Z,10.80
2022-09-20T09:49:24.016Z,11.00
2022-09-20T09:52:05.866Z,11.00
2022-09-20T09:54:42.212Z,11.00
2022-09-20T09:57:48.664Z,10.80
2022-09-20T10:00:22.339Z,10.90
2022-09-20T10:02:55.340Z,10.90
2022-09-20T10:05:28.195Z,10.90
2022-09-20T10:08:17.020Z,11.00
2022-09-20T10:11:13.245Z,11.20
2022-09-20T10:14:03.637Z,11.20
2022-09-20T10:16:54.936Z,11.30
2022-09-20T10:19:33.439Z,11.50
2022-09-20T10:23:00.329Z,11.80
2022-09-20T10:25:59.515Z,12.20
2022-09-20T10:29:08.422Z,12.30
2022-09-20T10:31:52.382Z,12.20
2022-09-20T10:34:40.429Z,12.30
2022-09-20T10:37:32.258Z,12.40
2022-09-20T10:40:16.381Z,12.60
2022-09-20T10:43:11.531Z,12.60
2022-09-20T10:46:27.648Z,12.70
2022-09-20T10:48:52.502Z,12.60
2022-09-20T10:51:44.839Z,12.60
2022-09-20T10:54:21.425Z,12.60
2022-09-20T10:56:52.894Z,12.40
2022-09-20T10:59:43.872Z,12.40
2022-09-20T11:02:29.409Z,12.20
2022-09-20T11:05:14.624Z,12.00
2022-09-20T11:07:51.020Z,11.80
2022-09-20T11:10:43.122Z,11.80
2022-09-20T11:13:37.580Z,12.00
2022-09-20T11:16:07.026Z,12.10
2022-09-20T11:18:41.564Z,12.20
2022-09-20T11:21:46.097Z,12.10
2022-09-20T11:24:32.262Z,12.20
2022-09-20T11:27:07.278Z,12.20
2022-09-20T11:29:37.690Z,12.10
2022-09-20T11:45:28.330Z,12.20
2022-09-20T11:52:09.361Z,12.70
2022-09-20T12:31:34.272Z,13.60
2022-09-20T12:34:01.346Z,13.90
2022-09-20T12:36:30.905Z,14.10
2022-09-20T12:39:20.694Z,14.40
2022-09-20T12:42:03.849Z,14.50
2022-09-20T12:44:49.108Z,14.60
2022-09-20T12:47:22.740Z,14.30
2022-09-20T12:50:08.053Z,14.20
2022-09-20T12:52:58.791Z,14.30
2022-09-20T12:56:04.972Z,14.40
2022-09-20T12:59:10.492Z,14.20
2022-09-20T13:01:39.799Z,14.20
2022-09-20T13:04:57.548Z,14.60
2022-09-20T13:08:07.829Z,14.60
2022-09-20T13:10:38.101Z,14.70
2022-09-20T13:13:44.315Z,14.50
2022-09-20T13:16:24.826Z,14.30
2022-09-20T13:19:44.846Z,14.00
2022-09-20T13:22:17.671Z,13.60
2022-09-20T13:24:47.778Z,13.40
2022-09-20T13:27:27.429Z,13.30
2022-09-20T13:29:54.229Z,13.00
2022-09-20T13:32:27.877Z,12.90
2022-09-20T13:35:18.723Z,13.10
2022-09-20T13:37:56.535Z,13.50
2022-09-20T13:40:42.505Z,13.80
2022-09-20T13:43:31.006Z,13.90
2022-09-20T13:46:00.420Z,13.70
2022-09-20T13:48:29.675Z,13.70
2022-09-20T13:50:57.248Z,13.90
2022-09-20T13:53:42.381Z,14.10
2022-09-20T13:56:28.755Z,14.10
2022-09-20T13:58:58.917Z,13.80
2022-09-20T14:01:34.816Z,14.00
2022-09-20T14:04:14.676Z,14.10
2022-09-20T14:06:42.511Z,14.00
2022-09-20T14:09:20.910Z,13.70
2022-09-20T14:11:48.601Z,13.50
2022-09-20T14:14:21.323Z,13.30
2022-09-20T14:16:50.080Z,13.10
2022-09-20T14:19:20.406Z,13.00
2022-09-20T14:21:48.564Z,12.90
2022-09-20T14:24:15.356Z,12.90
2022-09-20T14:27:03.972Z,13.10
2022-09-20T14:29:40.268Z,13.40
2022-09-20T14:32:19.148Z,13.70
2022-09-20T14:35:07.287Z,13.80
2022-09-20T14:37:45.781Z,13.80
2022-09-20T14:40:29.119Z,13.70
2022-09-20T14:43:06.829Z,13.60
2022-09-20T14:45:39.887Z,13.40
2022-09-20T14:48:26.600Z,13.40
2022-09-20T14:51:31.972Z,13.60
2022-09-20T14:54:04.449Z,13.80
2022-09-20T14:56:35.842Z,13.90
2022-09-20T14:59:21.698Z,14.00
2022-09-20T15:02:00.528Z,14.10
2022-09-20T15:04:31.678Z,14.40
2022-09-20T15:07:02.255Z,14.30
2022-09-20T15:09:30.161Z,14.40
2022-09-20T15:12:01.093Z,14.50
2022-09-20T15:14:28.161Z,14.60
2022-09-20T15:16:55.323Z,14.60
2022-09-20T15:19:22.476Z,14.50
2022-09-20T15:21:49.260Z,14.20
2022-09-20T15:24:17.829Z,14.10
2022-09-20T15:26:45.217Z,13.90
2022-09-20T15:29:19.742Z,13.90
2022-09-20T15:31:48.173Z,14.00
2022-09-20T15:34:16.312Z,14.00
2022-09-20T15:36:43.567Z,14.10
2022-09-20T15:39:10.740Z,14.20
2022-09-20T15:41:37.960Z,14.20
2022-09-20T15:44:05.485Z,14.10
2022-09-20T15:46:32.834Z,14.10
2022-09-20T15:49:02.604Z,14.10
2022-09-20T15:51:32.987Z,13.90
2022-09-20T15:54:06.330Z,13.80
2022-09-20T15:56:35.901Z,13.50
2022-09-20T15:59:05.321Z,13.50
2022-09-20T16:01:43.429Z,13.50
2022-09-20T16:04:21.189Z,13.40
2022-09-20T16:06:49.927Z,13.30
2022-09-20T16:09:18.935Z,13.10
2022-09-20T16:11:47.437Z,13.10
2022-09-20T16:14:14.408Z,13.00
2022-09-20T16:16:41.426Z,12.90
2022-09-20T16:19:23.794Z,12.80
2022-09-20T16:21:58.268Z,12.60
2022-09-20T16:24:33.650Z,12.60
2022-09-20T16:27:02.028Z,12.50
2022-09-20T16:29:30.130Z,12.50
2022-09-20T16:31:58.570Z,12.50
2022-09-20T16:34:34.079Z,12.40
2022-09-20T16:37:17.250Z,12.40
2022-09-20T16:39:44.774Z,12.40
2022-09-20T16:42:13.269Z,12.30
2022-09-20T16:44:45.851Z,12.20
2022-09-20T16:47:21.973Z,12.10
2022-09-20T16:49:50.383Z,12.00
2022-09-20T16:52:17.422Z,11.90
2022-09-20T16:54:44.831Z,11.90
2022-09-20T16:57:13.378Z,11.80
2022-09-20T16:59:40.800Z,11.80
2022-09-20T17:02:10.370Z,11.60
2022-09-20T17:04:37.614Z,11.60
2022-09-20T17:07:04.649Z,11.60
2022-09-20T17:09:31.438Z,11.50
2022-09-20T17:11:58.302Z,11.50
2022-09-20T17:14:25.784Z,11.50
2022-09-20T17:16:52.631Z,11.50
2022-09-20T17:19:20.651Z,11.50
2022-09-20T17:21:50.407Z,11.50
2022-09-20T17:24:22.067Z,11.40
2022-09-20T17:26:50.742Z,11.30
2022-09-20T17:29:19.220Z,11.30
2022-09-20T17:31:54.139Z,11.30
2022-09-20T17:34:22.153Z,11.30
2022-09-20T17:36:50.630Z,11.30
2022-09-20T17:39:18.059Z,11.20
2022-09-20T17:41:46.989Z,11.20
2022-09-20T17:44:14.722Z,11.20
2022-09-20T17:46:44.179Z,11.20
2022-09-20T17:49:21.942Z,11.10
2022-09-20T17:51:51.088Z,11.10
2022-09-20T17:54:19.282Z,11.10
2022-09-20T17:56:51.700Z,11.10
2022-09-20T17:59:19.737Z,11.00
2022-09-20T18:01:49.355Z,11.00
2022-09-20T18:04:16.407Z,11.00
2022-09-20T18:06:48.752Z,10.90
2022-09-20T18:09:18.284Z,10.90
2022-09-20T18:11:49.436Z,10.90
2022-09-20T18:14:18.705Z,10.90
2022-09-20T18:16:46.635Z,10.90
2022-09-20T18:19:16.063Z,10.90
2022-09-20T18:21:43.359Z,10.90
2022-09-20T18:24:11.705Z,10.80
2022-09-20T18:26:39.216Z,10.80
2022-09-20T18:29:09.605Z,10.80
2022-09-20T18:31:43.283Z,10.70
2022-09-20T18:34:15.376Z,10.70
2022-09-20T18:36:42.181Z,10.60
2022-09-20T18:39:09.210Z,10.60
2022-09-20T18:41:37.969Z,10.60
2022-09-20T18:44:07.171Z,10.50
2022-09-20T18:46:37.819Z,10.40
2022-09-20T18:49:08.702Z,10.40
2022-09-20T18:51:39.775Z,10.30
2022-09-20T18:54:10.258Z,10.30
2022-09-20T18:56:42.129Z,10.30
2022-09-20T18:59:18.212Z,10.20
2022-09-20T19:01:52.717Z,10.20
2022-09-20T19:04:40.918Z,10.20
2022-09-20T19:07:19.688Z,10.20
2022-09-20T19:10:06.585Z,10.10
2022-09-20T19:12:53.173Z,10.10
2022-09-20T19:15:47.581Z,10.10
2022-09-20T19:18:51.733Z,10.00
2022-09-20T19:21:59.054Z,10.00
2022-09-20T19:24:44.262Z,9.90
2022-09-20T19:27:13.154Z,9.90
2022-09-20T19:29:40.447Z,9.80
2022-09-20T19:32:20.069Z,9.80
2022-09-20T19:34:51.458Z,9.80
2022-09-20T19:37:26.152Z,9.80
2022-09-20T19:40:08.815Z,9.80
2022-09-20T19:42:54.002Z,9.80
2022-09-20T19:45:32.729Z,9.80
2022-09-20T19:48:19.040Z,9.70
2022-09-20T19:50:50.096Z,9.70
2022-09-20T19:53:20.438Z,9.70
2022-09-20T19:55:51.073Z,9.70
2022-09-20T19:58:18.151Z,9.70
2022-09-20T20:00:46.239Z,9.70
2022-09-20T20:03:14.288Z,9.70
2022-09-20T20:06:08.393Z,9.70
2022-09-20T20:08:42.193Z,9.60
2022-09-20T20:11:17.475Z,9.60
2022-09-20T20:14:07.206Z,9.50
2022-09-20T20:16:40.241Z,9.50
2022-09-20T20:19:27.894Z,9.50
2022-09-20T20:22:29.372Z,9.50
2022-09-20T20:24:57.531Z,9.50
2022-09-20T20:27:28.418Z,9.50
2022-09-20T20:29:55.934Z,9.50
2022-09-20T20:32:23.462Z,9.40
2022-09-20T20:34:50.456Z,9.40
2022-09-20T20:37:18.266Z,9.40
2022-09-20T20:39:45.171Z,9.40
2022-09-20T20:42:12.964Z,9.40
2022-09-20T20:44:40.099Z,9.40
2022-09-20T20:47:07.443Z,9.40
2022-09-20T20:49:36.064Z,9.30
2022-09-20T20:52:05.127Z,9.30
2022-09-20T20:54:34.665Z,9.20
2022-09-20T20:57:03.320Z,9.20
2022-09-20T20:59:30.152Z,9.20
2022-09-20T21:01:57.085Z,9.10
2022-09-20T21:04:25.454Z,9.00
2022-09-20T21:06:52.339Z,9.00
2022-09-20T21:09:19.236Z,8.90
2022-09-20T21:11:48.398Z,8.90
2022-09-20T21:14:15.999Z,8.80
2022-09-20T21:16:45.570Z,8.70
2022-09-20T21:19:18.277Z,8.70
2022-09-20T21:21:47.853Z,8.60
2022-09-20T21:24:17.382Z,8.60
2022-09-20T21:26:46.167Z,8.50
2022-09-20T21:29:15.686Z,8.50
2022-09-20T21:31:44.829Z,8.50
2022-09-20T21:34:13.747Z,8.40
2022-09-20T21:36:44.790Z,8.40
2022-09-20T21:39:12.200Z,8.30
2022-09-20T21:41:39.936Z,8.30
2022-09-20T21:44:09.849Z,8.30
2022-09-20T21:46:40.292Z,8.30
2022-09-20T21:49:09.303Z,8.30
2022-09-20T21:51:37.303Z,8.20
2022-09-20T21:54:04.924Z,8.20
2022-09-20T21:56:34.842Z,8.10
2022-09-20T21:59:04.127Z,8.10
2022-09-20T22:01:36.003Z,8.00
2022-09-20T22:04:10.732Z,7.90
2022-09-20T22:06:40.421Z,7.80
2022-09-20T22:43:08.714Z,7.30
2022-09-20T22:45:35.490Z,7.20
2022-09-20T22:48:02.356Z,7.20
2022-09-20T22:54:16.713Z,7.10
2022-09-20T22:56:43.514Z,6.90
2022-09-20T22:59:12.916Z,6.80
2022-09-20T23:01:45.055Z,6.70
2022-09-20T23:04:13.398Z,6.70
2022-09-20T23:06:42.873Z,6.70
2022-09-20T23:09:12.167Z,6.70
2022-09-20T23:11:42.021Z,6.70
2022-09-20T23:14:11.723Z,6.60
2022-09-20T23:16:39.239Z,6.60
2022-09-20T23:19:07.363Z,6.60
2022-09-20T23:21:35.013Z,6.60
2022-09-20T23:24:03.951Z,6.60
2022-09-20T23:26:33.302Z,6.40
2022-09-20T23:29:09.538Z,6.30
2022-09-20T23:31:37.722Z,6.30
2022-09-20T23:34:06.499Z,6.30
2022-09-20T23:36:35.596Z,6.20
2022-09-20T23:39:02.490Z,6.10
2022-09-20T23:41:29.744Z,6.10
2022-09-20T23:43:56.645Z,6.00
2022-09-20T23:46:24.743Z,6.00
2022-09-20T23:48:51.754Z,5.90
2022-09-20T23:51:22.894Z,5.90
2022-09-20T23:53:50.600Z,5.90
2022-09-20T23:56:17.967Z,5.80
2022-09-20T23:58:45.160Z,5.90
